Flight Track Log - Related Links

Times and Time Zones

All times are in EDT time to prevent confusion due to time zone crossing. See the N95LS flight status page for this flight to view local times or setup timezone preferences in your user account.

Time Position Orientation Groundspeed Altitude Reporting Facility
EDT Latitude Longitude Course Direction KTS MPH feet Rate Location/Type
Sun 11:42:19 PM 21.1667 -157.0667 317° Northwest 120 138 1,300  Level Honolulu Center
Sun 11:43:20 PM 21.1833 -157.0833 317° Northwest 70 81 1,900 595 Climbing Honolulu Center
Sun 11:44:20 PM 21.1833 -157.1167 270° West 80 92 2,500 600 Climbing Honolulu Center
Sun 11:45:20 PM 21.1833 -157.1333 270° West 70 81 3,100 600 Climbing Honolulu Center
Sun 11:46:20 PM 21.1667 -157.1667 242° Southwest 90 104 3,700 450 Climbing Honolulu Center
Sun 11:47:20 PM 21.1667 -157.1833 270° West 70 81 4,000 150 Climbing Honolulu Center
Sun 11:48:20 PM 21.1500 -157.2167 242° Southwest 110 127 4,000  Level Honolulu Center
Sun 11:49:20 PM 21.1333 -157.2333 223° Southwest 110 127 4,000  Level Honolulu Center
Sun 11:50:21 PM 21.1167 -157.2833 250° West 140 161 4,000 50 Level Honolulu Center
Sun 11:51:21 PM 21.1167 -157.3167 270° West 100 115 4,100 50 Climbing Honolulu Center
Sun 11:52:21 PM 21.1167 -157.3500 270° West 120 138 4,100  Level Honolulu Center
Sun 11:53:21 PM 21.1167 -157.3833 270° West 120 138 4,100 -50 Level Honolulu Center
Sun 11:54:21 PM 21.1167 -157.4167 270° West 120 138 4,000 -350 Descending Honolulu Center
Sun 11:55:21 PM 21.1167 -157.4500 270° West 130 150 3,400 -550 Descending Honolulu Center
Sun 11:56:21 PM 21.1333 -157.5000 290° West 130 150 2,900 -400 Descending Honolulu Center
Sun 11:57:21 PM 21.1500 -157.5333 298° West 130 150 2,600 -150 Descending Honolulu Center
Sun 11:58:21 PM 21.1667 -157.5667 298° West 130 150 2,600  Level Honolulu Center
Sun 11:59:21 PM 21.1833 -157.6000 298° West 130 150 2,600 -50 Level Honolulu Center
Mon 12:00:22 AM 21.2000 -157.6333 298° West 140 161 2,500  Descending Honolulu Center
Mon 12:01:22 AM 21.2167 -157.6667 298° West 140 161 2,600  Climbing Honolulu Center
Mon 12:02:22 AM 21.2333 -157.7000 298° West 130 150 2,500 -200 Descending Honolulu Center
Mon 12:03:22 AM 21.2500 -157.7333 298° West 130 150 2,200 -300 Descending Honolulu Center
Mon 12:04:22 AM 21.2667 -157.7667 298° West 130 150 1,900 -200 Descending Honolulu Center
Mon 12:05:22 AM 21.2833 -157.8000 298° West 120 138 1,800 -150 Descending Honolulu Center
Mon 12:06:22 AM 21.3000 -157.8333 298° West 120 138 1,600 -300 Descending Honolulu Center
Mon 12:07:22 AM 21.3167 -157.8500 317° Northwest 100 115 1,200 -446 Descending Honolulu Center
Mon 12:08:23 AM 21.3333 -157.8833 298° West 80 92 700 -492 Descending Honolulu Center

Login

Don't have an account? Register now (free) for customized features, flight alerts, and more!